createdAt,value
2022-08-21T00:00:46.872Z,14.82
2022-08-21T00:01:36.856Z,14.82
2022-08-21T00:02:26.948Z,14.79
2022-08-21T00:03:16.831Z,14.79
2022-08-21T00:04:06.828Z,14.79
2022-08-21T00:04:57.414Z,14.78
2022-08-21T00:05:46.797Z,14.79
2022-08-21T00:06:36.798Z,14.79
2022-08-21T00:07:26.775Z,14.79
2022-08-21T00:08:16.779Z,14.79
2022-08-21T00:09:06.959Z,14.79
2022-08-21T00:09:56.749Z,14.78
2022-08-21T00:10:46.734Z,14.75
2022-08-21T00:11:36.747Z,14.75
2022-08-21T00:12:26.727Z,14.75
2022-08-21T00:13:18.760Z,14.75
2022-08-21T00:14:06.707Z,14.71
2022-08-21T00:14:57.005Z,14.71
2022-08-21T00:15:46.687Z,14.71
2022-08-21T00:16:36.690Z,14.69
2022-08-21T00:17:26.669Z,14.67
2022-08-21T00:18:16.680Z,14.67
2022-08-21T00:19:06.674Z,14.67
2022-08-21T00:19:56.657Z,14.66
2022-08-21T00:20:46.638Z,14.67
2022-08-21T00:21:36.627Z,14.66
2022-08-21T00:22:26.606Z,14.64
2022-08-21T00:23:16.610Z,14.64
2022-08-21T00:24:06.616Z,14.64
2022-08-21T00:24:56.588Z,14.66
2022-08-21T00:25:46.566Z,14.64
2022-08-21T00:26:36.868Z,14.60
2022-08-21T00:27:26.560Z,14.60
2022-08-21T00:28:16.566Z,14.59
2022-08-21T00:29:06.542Z,14.57
2022-08-21T00:29:56.545Z,14.59
2022-08-21T00:30:46.532Z,14.57
2022-08-21T00:31:36.549Z,14.57
2022-08-21T00:32:26.494Z,14.56
2022-08-21T00:33:16.512Z,14.57
2022-08-21T00:34:06.466Z,14.57
2022-08-21T00:34:56.467Z,14.53
2022-08-21T00:35:46.466Z,14.53
2022-08-21T00:36:36.522Z,14.52
2022-08-21T00:37:26.436Z,14.52
2022-08-21T00:38:16.435Z,14.53
2022-08-21T00:39:06.416Z,14.49
2022-08-21T00:39:56.450Z,14.53
2022-08-21T00:40:46.396Z,14.49
2022-08-21T00:41:38.830Z,14.48
2022-08-21T00:42:26.406Z,14.45
2022-08-21T00:43:16.387Z,14.45
2022-08-21T00:44:06.388Z,14.45
2022-08-21T00:44:56.375Z,14.42
2022-08-21T00:45:46.337Z,14.41
2022-08-21T00:46:36.335Z,14.38
2022-08-21T00:47:26.499Z,14.38
2022-08-21T00:48:16.335Z,14.39
2022-08-21T00:49:06.316Z,14.39
2022-08-21T00:49:56.296Z,14.41
2022-08-21T00:50:46.296Z,14.42
2022-08-21T00:51:38.195Z,14.44
2022-08-21T00:52:26.286Z,14.44
2022-08-21T00:53:16.286Z,14.46
2022-08-21T00:54:06.256Z,14.49
2022-08-21T00:54:57.878Z,14.53
2022-08-21T00:55:46.236Z,14.52
2022-08-21T00:56:36.225Z,14.52
2022-08-21T00:57:26.206Z,14.54
2022-08-21T00:58:17.365Z,14.54
2022-08-21T00:59:06.185Z,14.54
2022-08-21T00:59:56.196Z,14.56
2022-08-21T01:00:46.228Z,14.54
2022-08-21T01:01:36.199Z,14.49
2022-08-21T01:02:26.192Z,14.49
2022-08-21T01:03:16.179Z,14.46
2022-08-21T01:04:06.135Z,14.46
2022-08-21T01:04:56.158Z,14.45
2022-08-21T01:05:46.125Z,14.46
2022-08-21T01:06:36.134Z,14.46
2022-08-21T01:07:27.646Z,14.46
2022-08-21T01:08:16.093Z,14.45
2022-08-21T01:09:06.075Z,14.46
2022-08-21T01:09:56.105Z,14.46
2022-08-21T01:10:46.083Z,14.48
2022-08-21T01:11:36.067Z,14.48
2022-08-21T01:12:26.057Z,14.49
2022-08-21T01:13:16.036Z,14.49
2022-08-21T01:14:06.023Z,14.53
2022-08-21T01:14:56.057Z,14.52
2022-08-21T01:15:46.005Z,14.52
2022-08-21T01:16:35.995Z,14.52
2022-08-21T01:17:25.984Z,14.49
2022-08-21T01:18:15.985Z,14.49
2022-08-21T01:19:05.985Z,14.52
2022-08-21T01:19:55.974Z,14.49
2022-08-21T01:20:46.220Z,14.48
2022-08-21T01:21:35.958Z,14.48
2022-08-21T01:22:25.925Z,14.48
2022-08-21T01:23:15.940Z,14.46
2022-08-21T01:24:05.922Z,14.46
2022-08-21T01:24:55.921Z,14.49
2022-08-21T01:25:45.891Z,14.48
2022-08-21T01:26:35.884Z,14.48
2022-08-21T01:27:25.871Z,14.48
2022-08-21T01:28:15.885Z,14.48
2022-08-21T01:29:05.876Z,14.49
2022-08-21T01:29:56.004Z,14.52
2022-08-21T01:30:45.843Z,14.52
2022-08-21T01:31:35.834Z,14.52
2022-08-21T01:32:25.835Z,14.49
2022-08-21T01:33:15.812Z,14.49
2022-08-21T01:34:05.873Z,14.49
2022-08-21T01:34:55.793Z,14.49
2022-08-21T01:35:45.805Z,14.48
2022-08-21T01:36:35.791Z,14.48
2022-08-21T01:37:25.764Z,14.46
2022-08-21T01:38:15.755Z,14.46
2022-08-21T01:39:05.753Z,14.46
2022-08-21T01:39:55.864Z,14.46
2022-08-21T01:40:45.741Z,14.45
2022-08-21T01:41:35.728Z,14.46
2022-08-21T01:42:25.705Z,14.44
2022-08-21T01:43:15.713Z,14.45
2022-08-21T01:44:06.717Z,14.45
2022-08-21T01:44:56.235Z,14.45
2022-08-21T01:45:45.675Z,14.45
2022-08-21T01:46:35.676Z,14.44
2022-08-21T01:47:25.658Z,14.41
2022-08-21T01:48:15.633Z,14.38
2022-08-21T01:49:05.659Z,14.38
2022-08-21T01:49:55.633Z,14.35
2022-08-21T01:50:45.634Z,14.34
2022-08-21T01:51:35.604Z,14.34
2022-08-21T01:52:25.615Z,14.34
2022-08-21T01:53:15.582Z,14.34
2022-08-21T01:54:05.583Z,14.31
2022-08-21T01:54:55.863Z,14.36
2022-08-21T01:55:45.573Z,14.34
2022-08-21T01:56:35.549Z,14.34
2022-08-21T01:57:26.071Z,14.30
2022-08-21T01:58:15.541Z,14.30
2022-08-21T01:59:05.521Z,14.27
2022-08-21T01:59:55.521Z,14.24
2022-08-21T02:00:45.608Z,14.19
2022-08-21T02:01:35.504Z,14.19
2022-08-21T02:02:25.507Z,14.19
2022-08-21T02:03:15.482Z,14.19
2022-08-21T02:04:06.491Z,14.19
2022-08-21T02:04:55.462Z,14.19
2022-08-21T02:05:45.462Z,14.16
2022-08-21T02:06:35.432Z,14.11
2022-08-21T02:07:25.422Z,14.04
2022-08-21T02:08:15.421Z,13.99
2022-08-21T02:09:05.432Z,13.99
2022-08-21T02:09:55.458Z,13.98
2022-08-21T02:10:48.894Z,13.98
2022-08-21T02:11:35.372Z,13.99
2022-08-21T02:12:25.401Z,14.02
2022-08-21T02:13:15.362Z,14.02
2022-08-21T02:14:05.372Z,14.02
2022-08-21T02:14:55.354Z,14.01
2022-08-21T02:15:45.342Z,14.04
2022-08-21T02:16:35.332Z,14.04
2022-08-21T02:17:25.323Z,14.04
2022-08-21T02:18:15.310Z,14.05
2022-08-21T02:19:05.302Z,14.06
2022-08-21T02:19:55.282Z,14.08
2022-08-21T02:20:45.301Z,14.06
2022-08-21T02:21:35.281Z,14.08
2022-08-21T02:22:25.281Z,14.08
2022-08-21T02:23:15.242Z,14.09
2022-08-21T02:24:05.239Z,14.09
2022-08-21T02:24:55.441Z,14.09
2022-08-21T02:25:45.230Z,14.09
2022-08-21T02:26:35.210Z,14.09
2022-08-21T02:27:26.761Z,14.09
2022-08-21T02:28:15.231Z,14.08
2022-08-21T02:29:05.180Z,14.09
2022-08-21T02:29:55.170Z,14.06
2022-08-21T02:30:45.173Z,14.09
2022-08-21T02:31:35.185Z,14.08
2022-08-21T02:32:25.162Z,14.08
2022-08-21T02:33:15.140Z,14.08
2022-08-21T02:34:05.121Z,14.06
2022-08-21T02:34:55.121Z,14.08
2022-08-21T02:35:45.111Z,14.08
2022-08-21T02:36:35.140Z,14.05
2022-08-21T02:37:25.090Z,14.05
2022-08-21T02:38:15.082Z,14.02
2022-08-21T02:39:05.081Z,14.01
2022-08-21T02:39:55.104Z,14.01
2022-08-21T02:40:48.040Z,13.99
2022-08-21T02:41:35.081Z,14.01
2022-08-21T02:42:25.040Z,14.01
2022-08-21T02:43:15.027Z,14.01
2022-08-21T02:44:05.049Z,13.99
2022-08-21T02:44:54.999Z,13.98
2022-08-21T02:45:44.997Z,13.98
2022-08-21T02:46:34.997Z,13.98
2022-08-21T02:47:24.976Z,13.98
2022-08-21T02:48:15.012Z,13.99
2022-08-21T02:49:04.972Z,14.01
2022-08-21T02:49:54.953Z,14.01
2022-08-21T02:50:44.943Z,14.02
2022-08-21T02:51:34.920Z,14.02
2022-08-21T02:52:24.919Z,14.02
2022-08-21T02:53:14.901Z,14.02
2022-08-21T02:54:04.918Z,13.99
2022-08-21T02:54:54.909Z,14.01
2022-08-21T02:55:44.878Z,13.99
2022-08-21T02:56:35.069Z,13.98
2022-08-21T02:57:24.917Z,13.96
2022-08-21T02:58:14.871Z,13.96
2022-08-21T02:59:04.838Z,13.96
2022-08-21T02:59:54.851Z,13.96
2022-08-21T03:00:44.834Z,13.96
2022-08-21T03:01:34.874Z,13.94
2022-08-21T03:02:26.730Z,13.94
2022-08-21T03:03:14.818Z,13.94
2022-08-21T03:04:04.799Z,13.94
2022-08-21T03:04:54.774Z,13.91
2022-08-21T03:05:44.770Z,13.93
2022-08-21T03:06:34.790Z,13.91
2022-08-21T03:07:24.758Z,13.90
2022-08-21T03:08:14.729Z,13.88
2022-08-21T03:09:04.768Z,13.88
2022-08-21T03:09:55.681Z,13.87
2022-08-21T03:10:44.708Z,13.87
2022-08-21T03:11:34.695Z,13.87
2022-08-21T03:12:24.707Z,13.88
2022-08-21T03:13:14.700Z,13.87
2022-08-21T03:14:04.692Z,13.86
2022-08-21T03:14:54.687Z,13.86
2022-08-21T03:15:44.649Z,13.86
2022-08-21T03:16:35.424Z,13.84
2022-08-21T03:17:29.350Z,13.84
2022-08-21T03:18:15.638Z,13.84
2022-08-21T03:19:04.620Z,13.80
2022-08-21T03:19:54.629Z,13.81
2022-08-21T03:20:44.646Z,13.80
2022-08-21T03:21:34.586Z,13.80
2022-08-21T03:22:24.578Z,13.81
2022-08-21T03:23:18.408Z,13.80
2022-08-21T03:24:04.576Z,13.81
2022-08-21T03:24:54.557Z,13.83
2022-08-21T03:25:44.538Z,13.83
2022-08-21T03:26:34.546Z,13.83
2022-08-21T03:27:24.527Z,13.83
2022-08-21T03:28:14.656Z,13.81
2022-08-21T03:29:04.498Z,13.81
2022-08-21T03:29:54.498Z,13.81
2022-08-21T03:30:44.497Z,13.81
2022-08-21T03:31:34.516Z,13.81
2022-08-21T03:32:24.478Z,13.83
2022-08-21T03:33:15.191Z,13.81
2022-08-21T03:34:04.445Z,13.81
2022-08-21T03:34:54.446Z,13.81
2022-08-21T03:35:44.427Z,13.81
2022-08-21T03:36:34.426Z,13.80
2022-08-21T03:37:24.444Z,13.80
2022-08-21T03:38:14.420Z,13.81
2022-08-21T03:39:04.417Z,13.79
2022-08-21T03:39:54.435Z,13.81
2022-08-21T03:40:44.369Z,13.80
2022-08-21T03:41:34.354Z,13.80
2022-08-21T03:42:24.368Z,13.80
2022-08-21T03:43:14.346Z,13.79
2022-08-21T03:44:04.397Z,13.75
2022-08-21T03:44:54.323Z,13.75
2022-08-21T03:45:44.325Z,13.72
2022-08-21T03:46:34.317Z,13.69
2022-08-21T03:47:24.325Z,13.66
2022-08-21T03:48:14.286Z,13.69
2022-08-21T03:49:04.296Z,13.69
2022-08-21T03:49:54.278Z,13.69
2022-08-21T03:50:44.295Z,13.69
2022-08-21T03:51:34.235Z,13.71
2022-08-21T03:52:24.244Z,13.69
2022-08-21T03:53:16.767Z,13.69
2022-08-21T03:54:04.216Z,13.63
2022-08-21T03:54:54.217Z,13.63
2022-08-21T03:55:44.244Z,13.62
2022-08-21T03:56:34.184Z,13.62
2022-08-21T03:57:24.183Z,13.62
2022-08-21T03:58:16.522Z,13.62
2022-08-21T03:59:04.174Z,13.61
2022-08-21T03:59:54.164Z,13.59
2022-08-21T04:00:44.150Z,13.57
2022-08-21T04:01:34.165Z,13.57
2022-08-21T04:02:24.136Z,13.53
2022-08-21T04:03:14.124Z,13.53
2022-08-21T04:04:04.135Z,13.51
2022-08-21T04:04:54.095Z,13.51
2022-08-21T04:05:44.084Z,13.50
2022-08-21T04:06:37.730Z,13.50
2022-08-21T04:07:24.075Z,13.50
2022-08-21T04:08:14.051Z,13.48
2022-08-21T04:09:04.094Z,13.48
2022-08-21T04:09:54.031Z,13.46
2022-08-21T04:10:44.036Z,13.39
2022-08-21T04:11:34.038Z,13.39
2022-08-21T04:12:24.013Z,13.39
2022-08-21T04:13:14.013Z,13.41
2022-08-21T04:14:04.037Z,13.41
2022-08-21T04:14:53.981Z,13.41
2022-08-21T04:15:43.990Z,13.39
2022-08-21T04:16:33.953Z,13.39
2022-08-21T04:17:23.951Z,13.39
2022-08-21T04:18:13.965Z,13.41
2022-08-21T04:19:03.950Z,13.41
2022-08-21T04:19:54.157Z,13.41
2022-08-21T04:20:45.413Z,13.38
2022-08-21T04:21:34.913Z,13.41
2022-08-21T04:22:23.893Z,13.39
2022-08-21T04:23:13.881Z,13.41
2022-08-21T04:24:04.910Z,13.39
2022-08-21T04:24:53.872Z,13.39
2022-08-21T04:25:43.860Z,13.41
2022-08-21T04:26:33.853Z,13.39
2022-08-21T04:27:23.865Z,13.41
2022-08-21T04:28:13.839Z,13.39
2022-08-21T04:29:03.857Z,13.39
2022-08-21T04:29:53.822Z,13.38
2022-08-21T04:30:43.812Z,13.38
2022-08-21T04:31:33.789Z,13.36
2022-08-21T04:32:23.794Z,13.35
2022-08-21T04:33:13.794Z,13.32
2022-08-21T04:34:03.761Z,13.29
2022-08-21T04:34:53.764Z,13.28
2022-08-21T04:35:43.752Z,13.27
2022-08-21T04:36:33.754Z,13.27
2022-08-21T04:37:23.735Z,13.27
2022-08-21T04:38:13.711Z,13.27
2022-08-21T04:39:03.754Z,13.27
2022-08-21T04:39:53.780Z,13.27
2022-08-21T04:40:43.691Z,13.24
2022-08-21T04:41:33.671Z,13.25
2022-08-21T04:42:23.684Z,13.25
2022-08-21T04:43:13.704Z,13.25
2022-08-21T04:44:03.673Z,13.25
2022-08-21T04:44:53.638Z,13.24
2022-08-21T04:45:43.643Z,13.24
2022-08-21T04:46:33.621Z,13.22
2022-08-21T04:47:23.644Z,13.17
2022-08-21T04:48:14.652Z,13.17
2022-08-21T04:49:03.620Z,13.17
2022-08-21T04:49:53.581Z,13.14
2022-08-21T04:50:43.598Z,13.13
2022-08-21T04:51:33.623Z,13.12
2022-08-21T04:52:23.560Z,13.10
2022-08-21T04:53:13.553Z,13.10
2022-08-21T04:54:03.555Z,13.09
2022-08-21T04:54:55.046Z,13.04
2022-08-21T04:55:43.527Z,13.06
2022-08-21T04:56:33.521Z,13.04
2022-08-21T04:57:23.531Z,13.04
2022-08-21T04:58:14.499Z,13.03
2022-08-21T04:59:03.489Z,13.03
2022-08-21T04:59:53.502Z,13.03
2022-08-21T05:00:43.480Z,13.04
2022-08-21T05:01:33.522Z,13.03
2022-08-21T05:02:23.470Z,13.01
2022-08-21T05:03:13.437Z,13.03
2022-08-21T05:04:03.429Z,13.01
2022-08-21T05:04:53.421Z,13.01
2022-08-21T05:05:43.421Z,13.01
2022-08-21T05:06:33.416Z,13.03
2022-08-21T05:07:41.946Z,12.99
2022-08-21T05:08:14.398Z,12.98
2022-08-21T05:09:03.377Z,12.99
2022-08-21T05:09:53.379Z,13.01
2022-08-21T05:10:43.356Z,13.01
2022-08-21T05:11:33.368Z,13.01
2022-08-21T05:12:23.348Z,13.03
2022-08-21T05:13:13.319Z,13.03
2022-08-21T05:14:03.341Z,13.01
2022-08-21T05:14:53.319Z,13.03
2022-08-21T05:15:43.333Z,13.01
2022-08-21T05:16:37.277Z,13.03
2022-08-21T05:17:23.299Z,13.04
2022-08-21T05:18:13.276Z,13.04
2022-08-21T05:19:03.270Z,13.03
2022-08-21T05:19:53.278Z,13.03
2022-08-21T05:20:43.249Z,13.03
2022-08-21T05:21:33.237Z,13.04
2022-08-21T05:22:23.226Z,13.04
2022-08-21T05:23:13.216Z,13.04
2022-08-21T05:24:03.226Z,13.04
2022-08-21T05:24:53.220Z,13.06
2022-08-21T05:25:43.185Z,13.06
2022-08-21T05:26:33.188Z,13.04
2022-08-21T05:27:24.204Z,13.04
2022-08-21T05:28:13.170Z,13.03
2022-08-21T05:29:03.165Z,13.03
2022-08-21T05:29:53.139Z,13.03
2022-08-21T05:30:43.140Z,13.04
2022-08-21T05:31:33.141Z,13.04
2022-08-21T05:32:23.118Z,13.04
2022-08-21T05:33:13.317Z,13.01
2022-08-21T05:34:03.096Z,13.01
2022-08-21T05:34:53.099Z,13.01
2022-08-21T05:35:43.087Z,13.01
2022-08-21T05:36:33.088Z,13.03
2022-08-21T05:37:23.056Z,13.03
2022-08-21T05:38:16.602Z,13.04
2022-08-21T05:39:04.053Z,13.03
2022-08-21T05:40:21.251Z,13.03
2022-08-21T05:40:44.094Z,13.03
2022-08-21T05:41:34.251Z,13.04
2022-08-21T05:42:23.000Z,13.04
2022-08-21T05:43:13.006Z,13.09
2022-08-21T05:44:02.986Z,13.09
2022-08-21T05:44:53.998Z,13.09
2022-08-21T05:45:44.319Z,13.09
2022-08-21T05:46:32.956Z,13.09
2022-08-21T05:47:22.937Z,13.06
2022-08-21T05:48:12.978Z,13.03
2022-08-21T05:49:02.928Z,13.03
2022-08-21T05:49:52.915Z,13.03
2022-08-21T05:50:42.939Z,13.04
2022-08-21T05:51:32.915Z,13.04
2022-08-21T05:52:22.885Z,13.04
2022-08-21T05:53:12.898Z,13.04
2022-08-21T05:54:02.916Z,13.06
2022-08-21T05:54:52.868Z,13.09
2022-08-21T05:55:45.838Z,13.10
2022-08-21T05:56:32.855Z,13.12
2022-08-21T05:57:22.825Z,13.12
2022-08-21T05:58:12.826Z,13.13
2022-08-21T05:59:02.838Z,13.14
2022-08-21T05:59:53.835Z,13.16
2022-08-21T06:00:42.794Z,13.16
2022-08-21T06:01:32.850Z,13.19
2022-08-21T06:02:22.785Z,13.21
2022-08-21T06:03:12.782Z,13.19
2022-08-21T06:04:02.820Z,13.19
2022-08-21T06:04:52.755Z,13.19
2022-08-21T06:05:42.750Z,13.19
2022-08-21T06:06:32.764Z,13.21
2022-08-21T06:07:22.715Z,13.19
2022-08-21T06:08:12.737Z,13.21
2022-08-21T06:09:02.727Z,13.22
2022-08-21T06:09:52.704Z,13.24
2022-08-21T06:10:42.697Z,13.25
2022-08-21T06:11:32.715Z,13.27
2022-08-21T06:12:22.664Z,13.28
2022-08-21T06:13:12.703Z,13.27
2022-08-21T06:14:02.665Z,13.27
2022-08-21T06:14:52.660Z,13.31
2022-08-21T06:15:42.624Z,13.28
2022-08-21T06:16:32.631Z,13.31
2022-08-21T06:17:22.626Z,13.35
2022-08-21T06:18:12.650Z,13.35
2022-08-21T06:19:03.276Z,13.35
2022-08-21T06:19:52.606Z,13.35
2022-08-21T06:20:42.571Z,13.35
2022-08-21T06:21:32.566Z,13.36
2022-08-21T06:22:22.552Z,13.35
2022-08-21T06:23:12.565Z,13.36
2022-08-21T06:24:02.570Z,13.36
2022-08-21T06:24:52.532Z,13.39
2022-08-21T06:25:42.532Z,13.39
2022-08-21T06:26:32.521Z,13.39
2022-08-21T06:27:26.497Z,13.38
2022-08-21T06:28:12.491Z,13.36
2022-08-21T06:29:02.492Z,13.32
2022-08-21T06:29:52.485Z,13.27
2022-08-21T06:30:42.465Z,13.25
2022-08-21T06:31:32.452Z,13.22
2022-08-21T06:32:22.451Z,13.28
2022-08-21T06:33:12.473Z,13.31
2022-08-21T06:34:02.445Z,13.36
2022-08-21T06:34:52.432Z,13.39
2022-08-21T06:35:42.422Z,13.44
2022-08-21T06:36:32.393Z,13.47
2022-08-21T06:37:22.400Z,13.44
2022-08-21T06:38:12.393Z,13.38
2022-08-21T06:39:02.381Z,13.35
2022-08-21T06:39:53.421Z,13.27
2022-08-21T06:40:43.963Z,13.22
2022-08-21T06:41:39.007Z,13.22
2022-08-21T06:42:23.343Z,13.22
2022-08-21T06:43:12.341Z,13.24
2022-08-21T06:44:02.334Z,13.21
2022-08-21T06:44:52.311Z,13.14
2022-08-21T06:45:42.312Z,13.12
2022-08-21T06:46:32.294Z,13.13
2022-08-21T06:47:22.272Z,13.16
2022-08-21T06:48:16.938Z,13.21
2022-08-21T06:49:03.270Z,13.22
2022-08-21T06:49:52.263Z,13.25
2022-08-21T06:50:42.290Z,13.25
2022-08-21T06:51:32.254Z,13.28
2022-08-21T06:52:22.229Z,13.32
2022-08-21T06:53:12.234Z,13.36
2022-08-21T06:54:02.213Z,13.44
2022-08-21T06:54:52.233Z,13.44
2022-08-21T06:55:42.195Z,13.43
2022-08-21T06:56:32.192Z,13.46
2022-08-21T06:57:22.161Z,13.43
2022-08-21T06:58:12.160Z,13.28
2022-08-21T06:59:02.160Z,13.27
2022-08-21T06:59:52.138Z,13.29
2022-08-21T07:00:42.152Z,13.29
2022-08-21T07:01:32.176Z,13.36
2022-08-21T07:02:22.119Z,13.46
2022-08-21T07:03:12.098Z,13.51
2022-08-21T07:04:02.114Z,13.59
2022-08-21T07:04:52.121Z,13.61
2022-08-21T07:05:42.067Z,13.61
2022-08-21T07:06:34.076Z,13.63
2022-08-21T07:07:22.080Z,13.65
2022-08-21T07:08:12.040Z,13.62
2022-08-21T07:09:02.029Z,13.62
2022-08-21T07:09:52.041Z,13.57
2022-08-21T07:10:42.009Z,13.57
2022-08-21T07:11:32.055Z,13.57
2022-08-21T07:12:22.989Z,13.59
2022-08-21T07:13:11.986Z,13.59
2022-08-21T07:14:01.999Z,13.59
2022-08-21T07:14:51.990Z,13.62
2022-08-21T07:15:41.990Z,13.65
2022-08-21T07:16:31.949Z,13.66
2022-08-21T07:17:21.930Z,13.68
2022-08-21T07:18:11.942Z,13.71
2022-08-21T07:19:01.938Z,13.66
2022-08-21T07:19:51.909Z,13.62
2022-08-21T07:20:41.928Z,13.66
2022-08-21T07:21:31.939Z,13.66
2022-08-21T07:22:21.876Z,13.62
2022-08-21T07:23:11.870Z,13.59
2022-08-21T07:24:01.913Z,13.57
2022-08-21T07:24:51.860Z,13.61
2022-08-21T07:25:41.858Z,13.61
2022-08-21T07:26:31.848Z,13.54
2022-08-21T07:27:21.888Z,13.54
2022-08-21T07:28:11.826Z,13.53
2022-08-21T07:29:01.799Z,13.53
2022-08-21T07:29:51.813Z,13.54
2022-08-21T07:30:41.778Z,13.51
2022-08-21T07:31:31.855Z,13.50
2022-08-21T07:32:21.787Z,13.50
2022-08-21T07:33:11.769Z,13.54
2022-08-21T07:34:01.745Z,13.57
2022-08-21T07:34:51.756Z,13.59
2022-08-21T07:35:41.747Z,13.61
2022-08-21T07:36:33.235Z,13.63
2022-08-21T07:37:21.722Z,13.68
2022-08-21T07:38:11.715Z,13.69
2022-08-21T07:39:01.707Z,13.73
2022-08-21T07:39:51.700Z,13.79
2022-08-21T07:40:41.687Z,13.80
2022-08-21T07:41:31.667Z,13.86
2022-08-21T07:42:21.704Z,13.87
2022-08-21T07:43:11.648Z,13.88
2022-08-21T07:44:01.646Z,13.91
2022-08-21T07:44:51.649Z,13.98
2022-08-21T07:45:41.619Z,13.99
2022-08-21T07:46:31.606Z,14.05
2022-08-21T07:47:41.813Z,14.08
2022-08-21T07:48:12.593Z,14.12
2022-08-21T07:49:01.578Z,14.17
2022-08-21T07:49:51.587Z,14.19
2022-08-21T07:50:41.567Z,14.21
2022-08-21T07:51:31.554Z,14.24
2022-08-21T07:52:21.584Z,14.24
2022-08-21T07:53:11.535Z,14.26
2022-08-21T07:54:01.517Z,14.27
2022-08-21T07:54:51.533Z,14.29
2022-08-21T07:55:41.518Z,14.31
2022-08-21T07:56:31.540Z,14.36
2022-08-21T07:57:21.707Z,14.39
2022-08-21T07:58:11.493Z,14.45
2022-08-21T07:59:01.485Z,14.48
2022-08-21T07:59:51.478Z,14.53
2022-08-21T08:00:41.466Z,14.57
2022-08-21T08:01:31.529Z,14.63
2022-08-21T08:02:21.475Z,14.67
2022-08-21T08:03:11.415Z,14.71
2022-08-21T08:04:01.411Z,14.78
2022-08-21T08:04:51.404Z,14.80
2022-08-21T08:05:41.405Z,14.83
2022-08-21T08:06:31.384Z,14.87
2022-08-21T08:07:21.376Z,14.93
2022-08-21T08:08:11.396Z,14.97
2022-08-21T08:09:01.352Z,15.00
2022-08-21T08:09:51.356Z,15.07
2022-08-21T08:10:41.352Z,15.12
2022-08-21T08:11:31.335Z,15.19
2022-08-21T08:12:21.341Z,15.23
2022-08-21T08:13:11.315Z,15.30
2022-08-21T08:14:01.308Z,15.34
2022-08-21T08:14:51.295Z,15.38
2022-08-21T08:15:41.286Z,15.41
2022-08-21T08:16:31.298Z,15.44
2022-08-21T08:17:21.276Z,15.51
2022-08-21T08:18:11.265Z,15.55
2022-08-21T08:19:01.237Z,15.59
2022-08-21T08:19:51.244Z,15.62
2022-08-21T08:20:41.224Z,15.66
2022-08-21T08:21:31.235Z,15.68
2022-08-21T08:22:21.215Z,15.73
2022-08-21T08:23:11.194Z,15.77
2022-08-21T08:24:01.202Z,15.85
2022-08-21T08:24:52.198Z,15.93
2022-08-21T08:25:41.185Z,15.98
2022-08-21T08:26:31.174Z,16.03
2022-08-21T08:27:21.214Z,16.06
2022-08-21T08:28:17.243Z,16.10
2022-08-21T08:29:02.147Z,16.16
2022-08-21T08:29:51.147Z,16.27
2022-08-21T08:30:41.137Z,16.40
2022-08-21T08:31:31.143Z,16.54
2022-08-21T08:32:21.104Z,16.67
2022-08-21T08:33:11.085Z,16.77
2022-08-21T08:34:01.085Z,16.90
2022-08-21T08:34:51.074Z,16.95
2022-08-21T08:35:41.075Z,16.96
2022-08-21T08:36:31.064Z,17.00
2022-08-21T08:37:21.075Z,17.03
2022-08-21T08:38:11.053Z,17.09
2022-08-21T08:39:01.023Z,17.17
2022-08-21T08:39:51.037Z,17.20
2022-08-21T08:40:43.111Z,17.22
2022-08-21T08:41:31.043Z,17.24
2022-08-21T08:42:32.666Z,17.28
2022-08-21T08:43:14.540Z,17.30
2022-08-21T08:44:00.973Z,17.39
2022-08-21T08:44:50.986Z,17.49
2022-08-21T08:45:40.964Z,17.60
2022-08-21T08:46:30.961Z,17.74
2022-08-21T08:47:20.931Z,17.83
2022-08-21T08:48:14.287Z,17.91
2022-08-21T08:49:00.924Z,17.94
2022-08-21T08:49:50.914Z,17.95
2022-08-21T08:50:40.904Z,17.96
2022-08-21T08:51:30.892Z,17.96
2022-08-21T08:52:20.883Z,17.98
2022-08-21T08:53:10.887Z,18.01
2022-08-21T08:54:00.862Z,18.04
2022-08-21T08:54:50.851Z,18.10
2022-08-21T08:55:40.883Z,18.13
2022-08-21T08:56:30.846Z,18.19
2022-08-21T08:57:20.855Z,18.26
2022-08-21T08:58:10.813Z,18.31
2022-08-21T08:59:00.822Z,18.41
2022-08-21T08:59:50.802Z,18.53
2022-08-21T09:00:40.822Z,18.66
2022-08-21T09:01:33.448Z,18.78
2022-08-21T09:02:20.785Z,18.93
2022-08-21T09:03:10.787Z,19.12
2022-08-21T09:04:00.773Z,19.24
2022-08-21T09:04:50.763Z,19.28
2022-08-21T09:05:40.760Z,19.31
2022-08-21T09:06:30.733Z,19.34
2022-08-21T09:07:20.723Z,19.35
2022-08-21T09:08:11.969Z,19.38
2022-08-21T09:09:00.723Z,19.39
2022-08-21T09:09:50.716Z,19.40
2022-08-21T09:10:40.712Z,19.45
2022-08-21T09:11:30.701Z,19.49
2022-08-21T09:12:20.673Z,19.57
2022-08-21T09:13:10.698Z,19.62
2022-08-21T09:14:00.685Z,19.67
2022-08-21T09:14:50.644Z,19.75
2022-08-21T09:15:40.653Z,19.83
2022-08-21T09:16:30.652Z,19.89
2022-08-21T09:17:20.643Z,19.97
2022-08-21T09:18:10.610Z,20.02
2022-08-21T09:19:00.604Z,20.07
2022-08-21T09:19:50.592Z,20.10
2022-08-21T09:20:40.594Z,20.15
2022-08-21T09:21:30.583Z,20.19
2022-08-21T09:22:20.573Z,20.25
2022-08-21T09:23:10.554Z,20.30
2022-08-21T09:24:00.552Z,20.34
2022-08-21T09:24:52.094Z,20.41
2022-08-21T09:25:40.543Z,20.46
2022-08-21T09:26:30.553Z,20.53
2022-08-21T09:27:20.580Z,20.58
2022-08-21T09:28:10.501Z,20.61
2022-08-21T09:29:00.494Z,20.66
2022-08-21T09:29:50.502Z,20.72
2022-08-21T09:30:40.494Z,20.75
2022-08-21T09:31:30.485Z,20.79
2022-08-21T09:32:20.487Z,20.87
2022-08-21T09:33:10.453Z,20.88
2022-08-21T09:34:00.456Z,20.93
2022-08-21T09:34:50.434Z,21.00
2022-08-21T09:35:40.424Z,21.05
2022-08-21T09:36:30.402Z,21.08
2022-08-21T09:37:20.450Z,21.15
2022-08-21T09:38:10.394Z,21.21
2022-08-21T09:39:00.395Z,21.27
2022-08-21T09:39:50.412Z,21.31
2022-08-21T09:40:40.392Z,21.36
2022-08-21T09:41:30.350Z,21.40
2022-08-21T09:42:20.384Z,21.42
2022-08-21T09:43:10.343Z,21.45
2022-08-21T09:44:00.336Z,21.51
2022-08-21T09:44:50.314Z,21.56
2022-08-21T09:45:40.346Z,21.64
2022-08-21T09:46:30.293Z,21.68
2022-08-21T09:47:22.797Z,21.73
2022-08-21T09:48:11.284Z,21.77
2022-08-21T09:49:00.281Z,21.82
2022-08-21T09:49:50.265Z,21.89
2022-08-21T09:50:40.253Z,21.90
2022-08-21T09:51:30.253Z,21.96
2022-08-21T09:52:20.257Z,21.99
2022-08-21T09:53:10.233Z,22.05
2022-08-21T09:54:00.224Z,22.09
2022-08-21T09:54:50.227Z,22.14
2022-08-21T09:55:40.214Z,22.15
2022-08-21T09:56:30.212Z,22.20
2022-08-21T09:57:20.204Z,22.26
2022-08-21T09:58:10.163Z,22.30
2022-08-21T09:59:00.161Z,22.33
2022-08-21T09:59:50.165Z,22.39
2022-08-21T10:00:40.207Z,22.45
2022-08-21T10:01:30.190Z,22.48
2022-08-21T10:02:20.133Z,22.54
2022-08-21T10:03:10.123Z,22.57
2022-08-21T10:04:00.097Z,22.61
2022-08-21T10:04:50.107Z,22.66
2022-08-21T10:05:40.094Z,22.70
2022-08-21T10:06:30.063Z,22.75
2022-08-21T10:07:20.075Z,22.79
2022-08-21T10:08:10.055Z,22.82
2022-08-21T10:09:00.044Z,22.85
2022-08-21T10:09:50.036Z,22.86
2022-08-21T10:10:40.033Z,22.91
2022-08-21T10:11:30.043Z,22.94
2022-08-21T10:12:19.996Z,23.00
2022-08-21T10:13:09.983Z,23.06
2022-08-21T10:14:00.006Z,23.14
2022-08-21T10:14:50.127Z,23.18
2022-08-21T10:15:39.955Z,23.21
2022-08-21T10:16:29.954Z,23.25
2022-08-21T10:17:19.944Z,23.29
2022-08-21T10:18:09.936Z,23.29
2022-08-21T10:18:59.947Z,23.32
2022-08-21T10:19:49.917Z,23.35
2022-08-21T10:20:39.914Z,23.37
2022-08-21T10:21:29.884Z,23.39
2022-08-21T10:22:19.886Z,23.42
2022-08-21T10:23:09.877Z,23.42
2022-08-21T10:23:59.854Z,23.44
2022-08-21T10:24:49.873Z,23.49
2022-08-21T10:25:39.856Z,23.49
2022-08-21T10:26:30.844Z,23.49
2022-08-21T10:27:19.812Z,23.52
2022-08-21T10:28:13.585Z,23.53
2022-08-21T10:28:59.794Z,23.53
2022-08-21T10:29:49.799Z,23.56
2022-08-21T10:30:39.807Z,23.57
2022-08-21T10:31:29.767Z,23.57
2022-08-21T10:32:22.546Z,23.59
2022-08-21T10:33:10.744Z,23.60
2022-08-21T10:33:59.737Z,23.63
2022-08-21T10:34:49.734Z,23.67
2022-08-21T10:35:39.735Z,23.68
2022-08-21T10:36:29.714Z,23.71
2022-08-21T10:37:19.696Z,23.74
2022-08-21T10:38:09.688Z,23.74
2022-08-21T10:39:25.255Z,23.74
2022-08-21T10:39:50.710Z,23.77
2022-08-21T10:40:39.655Z,23.82
2022-08-21T10:41:29.635Z,23.89
2022-08-21T10:42:19.650Z,23.92
2022-08-21T10:43:09.644Z,23.94
2022-08-21T10:43:59.606Z,23.96